sensor_id;sensor_type;location;lat;lon;timestamp;P1;durP1;ratioP1;P2;durP2;ratioP2
76610;SDS011;65503;48.534;9.062;2023-07-24T00:00:49;11.32;;;5.68;;
76610;SDS011;65503;48.534;9.062;2023-07-24T00:03:16;11.90;;;5.85;;
76610;SDS011;65503;48.534;9.062;2023-07-24T00:05:42;11.15;;;6.00;;
76610;SDS011;65503;48.534;9.062;2023-07-24T00:08:09;14.20;;;6.38;;
76610;SDS011;65503;48.534;9.062;2023-07-24T00:10:35;12.60;;;5.75;;
76610;SDS011;65503;48.534;9.062;2023-07-24T00:13:02;11.35;;;5.90;;
76610;SDS011;65503;48.534;9.062;2023-07-24T00:17:56;12.35;;;6.10;;
76610;SDS011;65503;48.534;9.062;2023-07-24T00:20:22;11.93;;;5.50;;
76610;SDS011;65503;48.534;9.062;2023-07-24T00:22:52;12.30;;;6.40;;
76610;SDS011;65503;48.534;9.062;2023-07-24T00:25:19;11.00;;;5.78;;
76610;SDS011;65503;48.534;9.062;2023-07-24T00:27:46;10.77;;;5.60;;
76610;SDS011;65503;48.534;9.062;2023-07-24T00:30:12;10.57;;;6.07;;
76610;SDS011;65503;48.534;9.062;2023-07-24T00:32:39;13.20;;;6.35;;
76610;SDS011;65503;48.534;9.062;2023-07-24T00:35:05;12.07;;;6.30;;
76610;SDS011;65503;48.534;9.062;2023-07-24T00:39:59;12.20;;;6.50;;
76610;SDS011;65503;48.534;9.062;2023-07-24T00:42:26;10.57;;;5.72;;
76610;SDS011;65503;48.534;9.062;2023-07-24T00:44:52;10.32;;;5.20;;
76610;SDS011;65503;48.534;9.062;2023-07-24T00:47:19;10.75;;;5.25;;
76610;SDS011;65503;48.534;9.062;2023-07-24T00:49:46;12.73;;;6.45;;
76610;SDS011;65503;48.534;9.062;2023-07-24T00:52:13;10.43;;;5.40;;
76610;SDS011;65503;48.534;9.062;2023-07-24T00:54:41;10.98;;;5.40;;
76610;SDS011;65503;48.534;9.062;2023-07-24T00:57:09;10.63;;;5.20;;
76610;SDS011;65503;48.534;9.062;2023-07-24T00:59:36;11.90;;;5.63;;
76610;SDS011;65503;48.534;9.062;2023-07-24T01:02:03;11.90;;;5.78;;
76610;SDS011;65503;48.534;9.062;2023-07-24T01:04:29;11.55;;;5.55;;
76610;SDS011;65503;48.534;9.062;2023-07-24T01:06:56;10.88;;;5.32;;
76610;SDS011;65503;48.534;9.062;2023-07-24T01:09:23;10.32;;;5.47;;
76610;SDS011;65503;48.534;9.062;2023-07-24T01:11:50;11.27;;;5.55;;
76610;SDS011;65503;48.534;9.062;2023-07-24T01:14:43;11.05;;;5.35;;
76610;SDS011;65503;48.534;9.062;2023-07-24T01:17:17;12.57;;;6.10;;
76610;SDS011;65503;48.534;9.062;2023-07-24T01:19:52;10.35;;;5.30;;
76610;SDS011;65503;48.534;9.062;2023-07-24T01:22:31;10.27;;;5.32;;
76610;SDS011;65503;48.534;9.062;2023-07-24T01:25:18;10.85;;;5.10;;
76610;SDS011;65503;48.534;9.062;2023-07-24T01:30:19;11.48;;;5.43;;
76610;SDS011;65503;48.534;9.062;2023-07-24T01:32:46;11.25;;;5.40;;
76610;SDS011;65503;48.534;9.062;2023-07-24T01:35:13;11.68;;;5.10;;
76610;SDS011;65503;48.534;9.062;2023-07-24T01:37:41;11.32;;;5.53;;
76610;SDS011;65503;48.534;9.062;2023-07-24T01:40:10;12.20;;;5.85;;
76610;SDS011;65503;48.534;9.062;2023-07-24T01:42:37;11.88;;;5.47;;
76610;SDS011;65503;48.534;9.062;2023-07-24T01:45:04;14.30;;;5.65;;
76610;SDS011;65503;48.534;9.062;2023-07-24T01:47:32;10.50;;;4.95;;
76610;SDS011;65503;48.534;9.062;2023-07-24T01:49:59;10.98;;;4.95;;
76610;SDS011;65503;48.534;9.062;2023-07-24T01:52:25;11.48;;;5.40;;
76610;SDS011;65503;48.534;9.062;2023-07-24T01:54:52;12.10;;;5.63;;
76610;SDS011;65503;48.534;9.062;2023-07-24T01:57:19;11.27;;;5.20;;
76610;SDS011;65503;48.534;9.062;2023-07-24T01:59:45;9.45;;;5.25;;
76610;SDS011;65503;48.534;9.062;2023-07-24T02:02:12;10.60;;;5.30;;
76610;SDS011;65503;48.534;9.062;2023-07-24T02:04:38;10.82;;;5.82;;
76610;SDS011;65503;48.534;9.062;2023-07-24T02:07:05;11.90;;;5.63;;
76610;SDS011;65503;48.534;9.062;2023-07-24T02:09:31;12.32;;;5.70;;
76610;SDS011;65503;48.534;9.062;2023-07-24T02:11:58;9.80;;;5.20;;
76610;SDS011;65503;48.534;9.062;2023-07-24T02:14:24;11.30;;;5.18;;
76610;SDS011;65503;48.534;9.062;2023-07-24T02:16:53;11.27;;;5.82;;
76610;SDS011;65503;48.534;9.062;2023-07-24T02:19:19;9.90;;;5.00;;
76610;SDS011;65503;48.534;9.062;2023-07-24T02:21:46;11.80;;;5.38;;
76610;SDS011;65503;48.534;9.062;2023-07-24T02:24:12;12.98;;;6.50;;
76610;SDS011;65503;48.534;9.062;2023-07-24T02:26:39;10.38;;;5.00;;
76610;SDS011;65503;48.534;9.062;2023-07-24T02:29:05;10.48;;;5.38;;
76610;SDS011;65503;48.534;9.062;2023-07-24T02:31:32;11.52;;;5.78;;
76610;SDS011;65503;48.534;9.062;2023-07-24T02:33:58;11.25;;;5.25;;
76610;SDS011;65503;48.534;9.062;2023-07-24T02:36:25;10.15;;;5.32;;
76610;SDS011;65503;48.534;9.062;2023-07-24T02:38:52;11.40;;;5.55;;
76610;SDS011;65503;48.534;9.062;2023-07-24T02:41:19;11.15;;;5.47;;
76610;SDS011;65503;48.534;9.062;2023-07-24T02:43:46;11.73;;;5.68;;
76610;SDS011;65503;48.534;9.062;2023-07-24T02:46:12;12.65;;;5.63;;
76610;SDS011;65503;48.534;9.062;2023-07-24T02:48:39;11.70;;;5.47;;
76610;SDS011;65503;48.534;9.062;2023-07-24T02:51:05;10.73;;;5.05;;
76610;SDS011;65503;48.534;9.062;2023-07-24T02:53:32;11.65;;;5.72;;
76610;SDS011;65503;48.534;9.062;2023-07-24T02:56:00;10.73;;;5.22;;
76610;SDS011;65503;48.534;9.062;2023-07-24T02:58:28;11.60;;;5.50;;
76610;SDS011;65503;48.534;9.062;2023-07-24T03:00:54;11.75;;;5.65;;
76610;SDS011;65503;48.534;9.062;2023-07-24T03:03:29;10.90;;;5.50;;
76610;SDS011;65503;48.534;9.062;2023-07-24T03:05:56;10.63;;;5.47;;
76610;SDS011;65503;48.534;9.062;2023-07-24T03:08:22;12.27;;;5.43;;
76610;SDS011;65503;48.534;9.062;2023-07-24T03:10:49;13.90;;;5.88;;
76610;SDS011;65503;48.534;9.062;2023-07-24T03:13:15;11.82;;;5.53;;
76610;SDS011;65503;48.534;9.062;2023-07-24T03:15:42;11.75;;;5.63;;
76610;SDS011;65503;48.534;9.062;2023-07-24T03:18:08;11.48;;;5.60;;
76610;SDS011;65503;48.534;9.062;2023-07-24T03:20:35;11.40;;;5.97;;
76610;SDS011;65503;48.534;9.062;2023-07-24T03:23:02;10.82;;;5.45;;
76610;SDS011;65503;48.534;9.062;2023-07-24T03:25:29;14.10;;;5.63;;
76610;SDS011;65503;48.534;9.062;2023-07-24T03:27:57;15.68;;;6.00;;
76610;SDS011;65503;48.534;9.062;2023-07-24T03:30:24;12.57;;;6.00;;
76610;SDS011;65503;48.534;9.062;2023-07-24T03:32:51;11.65;;;5.60;;
76610;SDS011;65503;48.534;9.062;2023-07-24T03:35:17;12.13;;;5.53;;
76610;SDS011;65503;48.534;9.062;2023-07-24T03:37:44;11.95;;;5.70;;
76610;SDS011;65503;48.534;9.062;2023-07-24T03:40:11;11.60;;;5.90;;
76610;SDS011;65503;48.534;9.062;2023-07-24T03:42:38;12.80;;;6.07;;
76610;SDS011;65503;48.534;9.062;2023-07-24T03:45:05;10.57;;;5.22;;
76610;SDS011;65503;48.534;9.062;2023-07-24T03:47:32;10.57;;;5.60;;
76610;SDS011;65503;48.534;9.062;2023-07-24T03:49:59;13.82;;;6.32;;
76610;SDS011;65503;48.534;9.062;2023-07-24T03:52:25;10.32;;;5.30;;
76610;SDS011;65503;48.534;9.062;2023-07-24T03:54:52;10.07;;;5.07;;
76610;SDS011;65503;48.534;9.062;2023-07-24T03:57:18;11.55;;;5.32;;
76610;SDS011;65503;48.534;9.062;2023-07-24T03:59:45;10.93;;;5.13;;
76610;SDS011;65503;48.534;9.062;2023-07-24T04:02:11;10.32;;;5.32;;
76610;SDS011;65503;48.534;9.062;2023-07-24T04:04:38;11.18;;;5.70;;
76610;SDS011;65503;48.534;9.062;2023-07-24T04:07:05;11.93;;;6.10;;
76610;SDS011;65503;48.534;9.062;2023-07-24T04:09:32;11.35;;;5.47;;
76610;SDS011;65503;48.534;9.062;2023-07-24T04:11:59;12.30;;;5.72;;
76610;SDS011;65503;48.534;9.062;2023-07-24T04:14:25;11.00;;;6.07;;
76610;SDS011;65503;48.534;9.062;2023-07-24T04:16:52;15.45;;;6.70;;
76610;SDS011;65503;48.534;9.062;2023-07-24T04:19:19;12.50;;;6.03;;
76610;SDS011;65503;48.534;9.062;2023-07-24T04:21:46;11.68;;;5.82;;
76610;SDS011;65503;48.534;9.062;2023-07-24T04:24:12;10.95;;;5.65;;
76610;SDS011;65503;48.534;9.062;2023-07-24T04:26:39;12.38;;;5.70;;
76610;SDS011;65503;48.534;9.062;2023-07-24T04:29:06;10.88;;;5.30;;
76610;SDS011;65503;48.534;9.062;2023-07-24T04:34:00;12.13;;;6.03;;
76610;SDS011;65503;48.534;9.062;2023-07-24T04:36:26;11.00;;;5.30;;
76610;SDS011;65503;48.534;9.062;2023-07-24T04:38:53;13.10;;;6.05;;
76610;SDS011;65503;48.534;9.062;2023-07-24T04:41:19;11.32;;;5.43;;
76610;SDS011;65503;48.534;9.062;2023-07-24T04:43:46;12.15;;;5.47;;
76610;SDS011;65503;48.534;9.062;2023-07-24T04:46:12;11.45;;;5.82;;
76610;SDS011;65503;48.534;9.062;2023-07-24T04:48:39;14.60;;;5.85;;
76610;SDS011;65503;48.534;9.062;2023-07-24T04:51:06;11.02;;;5.40;;
76610;SDS011;65503;48.534;9.062;2023-07-24T04:53:32;11.50;;;5.97;;
76610;SDS011;65503;48.534;9.062;2023-07-24T04:55:59;10.45;;;5.45;;
76610;SDS011;65503;48.534;9.062;2023-07-24T04:58:26;11.77;;;5.85;;
76610;SDS011;65503;48.534;9.062;2023-07-24T05:00:52;10.77;;;5.72;;
76610;SDS011;65503;48.534;9.062;2023-07-24T05:03:19;11.52;;;5.25;;
76610;SDS011;65503;48.534;9.062;2023-07-24T05:05:53;13.95;;;6.78;;
76610;SDS011;65503;48.534;9.062;2023-07-24T05:08:21;11.10;;;5.75;;
76610;SDS011;65503;48.534;9.062;2023-07-24T05:10:53;13.85;;;6.43;;
76610;SDS011;65503;48.534;9.062;2023-07-24T05:13:20;12.30;;;5.80;;
76610;SDS011;65503;48.534;9.062;2023-07-24T05:15:46;11.68;;;5.95;;
76610;SDS011;65503;48.534;9.062;2023-07-24T05:18:13;12.30;;;6.15;;
76610;SDS011;65503;48.534;9.062;2023-07-24T05:20:42;12.25;;;5.88;;
76610;SDS011;65503;48.534;9.062;2023-07-24T05:25:40;12.13;;;5.60;;
76610;SDS011;65503;48.534;9.062;2023-07-24T05:28:07;12.75;;;6.03;;
76610;SDS011;65503;48.534;9.062;2023-07-24T05:30:34;11.32;;;5.97;;
76610;SDS011;65503;48.534;9.062;2023-07-24T05:33:00;13.88;;;5.75;;
76610;SDS011;65503;48.534;9.062;2023-07-24T05:35:27;12.45;;;5.95;;
76610;SDS011;65503;48.534;9.062;2023-07-24T05:37:53;13.60;;;6.38;;
76610;SDS011;65503;48.534;9.062;2023-07-24T05:40:20;11.80;;;5.82;;
76610;SDS011;65503;48.534;9.062;2023-07-24T05:42:46;14.18;;;6.65;;
76610;SDS011;65503;48.534;9.062;2023-07-24T05:45:13;10.32;;;5.95;;
76610;SDS011;65503;48.534;9.062;2023-07-24T05:47:43;12.35;;;5.63;;
76610;SDS011;65503;48.534;9.062;2023-07-24T05:50:09;11.27;;;5.55;;
76610;SDS011;65503;48.534;9.062;2023-07-24T05:52:36;12.00;;;6.38;;
76610;SDS011;65503;48.534;9.062;2023-07-24T05:55:03;13.93;;;6.07;;
76610;SDS011;65503;48.534;9.062;2023-07-24T05:57:30;14.18;;;6.25;;
76610;SDS011;65503;48.534;9.062;2023-07-24T05:59:56;12.82;;;6.38;;
76610;SDS011;65503;48.534;9.062;2023-07-24T06:02:23;14.75;;;7.07;;
76610;SDS011;65503;48.534;9.062;2023-07-24T06:04:50;15.63;;;6.30;;
76610;SDS011;65503;48.534;9.062;2023-07-24T06:07:16;12.25;;;6.30;;
76610;SDS011;65503;48.534;9.062;2023-07-24T06:09:43;11.93;;;6.65;;
76610;SDS011;65503;48.534;9.062;2023-07-24T06:12:09;12.80;;;6.40;;
76610;SDS011;65503;48.534;9.062;2023-07-24T06:14:36;17.30;;;6.45;;
76610;SDS011;65503;48.534;9.062;2023-07-24T06:17:02;17.63;;;6.85;;
76610;SDS011;65503;48.534;9.062;2023-07-24T06:19:29;12.02;;;5.95;;
76610;SDS011;65503;48.534;9.062;2023-07-24T06:21:56;14.25;;;6.40;;
76610;SDS011;65503;48.534;9.062;2023-07-24T06:24:22;13.55;;;5.97;;
76610;SDS011;65503;48.534;9.062;2023-07-24T06:26:50;11.65;;;5.65;;
76610;SDS011;65503;48.534;9.062;2023-07-24T06:29:16;17.48;;;6.57;;
76610;SDS011;65503;48.534;9.062;2023-07-24T06:31:43;12.35;;;6.15;;
76610;SDS011;65503;48.534;9.062;2023-07-24T06:34:09;15.45;;;5.93;;
76610;SDS011;65503;48.534;9.062;2023-07-24T06:36:36;15.00;;;6.18;;
76610;SDS011;65503;48.534;9.062;2023-07-24T06:39:02;12.60;;;6.38;;
76610;SDS011;65503;48.534;9.062;2023-07-24T06:41:29;15.02;;;6.82;;
76610;SDS011;65503;48.534;9.062;2023-07-24T06:43:55;18.90;;;6.95;;
76610;SDS011;65503;48.534;9.062;2023-07-24T06:46:22;16.20;;;6.65;;
76610;SDS011;65503;48.534;9.062;2023-07-24T06:48:49;12.45;;;6.05;;
76610;SDS011;65503;48.534;9.062;2023-07-24T06:51:15;19.38;;;7.45;;
76610;SDS011;65503;48.534;9.062;2023-07-24T06:53:42;14.20;;;6.22;;
76610;SDS011;65503;48.534;9.062;2023-07-24T06:56:08;14.98;;;6.75;;
76610;SDS011;65503;48.534;9.062;2023-07-24T06:58:35;15.88;;;6.55;;
76610;SDS011;65503;48.534;9.062;2023-07-24T07:01:05;15.00;;;6.43;;
76610;SDS011;65503;48.534;9.062;2023-07-24T07:03:32;15.60;;;6.90;;
76610;SDS011;65503;48.534;9.062;2023-07-24T07:06:01;14.02;;;6.28;;
76610;SDS011;65503;48.534;9.062;2023-07-24T07:08:28;14.70;;;6.60;;
76610;SDS011;65503;48.534;9.062;2023-07-24T07:10:56;15.90;;;7.28;;
76610;SDS011;65503;48.534;9.062;2023-07-24T07:13:23;14.32;;;6.72;;
76610;SDS011;65503;48.534;9.062;2023-07-24T07:15:50;15.57;;;6.65;;
76610;SDS011;65503;48.534;9.062;2023-07-24T07:18:17;12.82;;;5.88;;
76610;SDS011;65503;48.534;9.062;2023-07-24T07:20:50;12.85;;;6.22;;
76610;SDS011;65503;48.534;9.062;2023-07-24T07:23:19;15.00;;;6.43;;
76610;SDS011;65503;48.534;9.062;2023-07-24T07:25:46;11.15;;;5.63;;
76610;SDS011;65503;48.534;9.062;2023-07-24T07:28:14;14.88;;;6.63;;
76610;SDS011;65503;48.534;9.062;2023-07-24T07:30:42;16.33;;;7.10;;
76610;SDS011;65503;48.534;9.062;2023-07-24T07:33:11;13.48;;;6.18;;
76610;SDS011;65503;48.534;9.062;2023-07-24T07:35:37;11.90;;;6.78;;
76610;SDS011;65503;48.534;9.062;2023-07-24T07:38:04;13.38;;;6.53;;
76610;SDS011;65503;48.534;9.062;2023-07-24T07:40:30;14.00;;;7.00;;
76610;SDS011;65503;48.534;9.062;2023-07-24T07:42:57;14.98;;;6.75;;
76610;SDS011;65503;48.534;9.062;2023-07-24T07:45:24;11.95;;;5.72;;
76610;SDS011;65503;48.534;9.062;2023-07-24T07:50:19;10.55;;;5.55;;
76610;SDS011;65503;48.534;9.062;2023-07-24T07:52:49;13.05;;;5.75;;
76610;SDS011;65503;48.534;9.062;2023-07-24T07:55:17;12.13;;;6.05;;
76610;SDS011;65503;48.534;9.062;2023-07-24T07:57:44;10.82;;;5.70;;
76610;SDS011;65503;48.534;9.062;2023-07-24T08:02:38;13.80;;;6.10;;
76610;SDS011;65503;48.534;9.062;2023-07-24T08:05:07;14.00;;;5.78;;
76610;SDS011;65503;48.534;9.062;2023-07-24T08:07:43;12.88;;;6.13;;
76610;SDS011;65503;48.534;9.062;2023-07-24T08:10:09;11.93;;;5.78;;
76610;SDS011;65503;48.534;9.062;2023-07-24T08:12:36;11.70;;;5.60;;
76610;SDS011;65503;48.534;9.062;2023-07-24T08:15:03;13.00;;;6.13;;
76610;SDS011;65503;48.534;9.062;2023-07-24T08:17:30;15.02;;;6.15;;
76610;SDS011;65503;48.534;9.062;2023-07-24T08:22:23;14.50;;;5.75;;
76610;SDS011;65503;48.534;9.062;2023-07-24T08:24:50;12.55;;;5.90;;
76610;SDS011;65503;48.534;9.062;2023-07-24T08:27:20;12.70;;;5.20;;
76610;SDS011;65503;48.534;9.062;2023-07-24T08:29:50;12.88;;;5.50;;
76610;SDS011;65503;48.534;9.062;2023-07-24T08:32:18;13.68;;;5.82;;
76610;SDS011;65503;48.534;9.062;2023-07-24T08:37:11;13.55;;;5.55;;
76610;SDS011;65503;48.534;9.062;2023-07-24T08:39:38;10.55;;;4.93;;
76610;SDS011;65503;48.534;9.062;2023-07-24T08:42:11;12.77;;;5.07;;
76610;SDS011;65503;48.534;9.062;2023-07-24T08:44:38;9.63;;;4.93;;
76610;SDS011;65503;48.534;9.062;2023-07-24T08:47:06;10.85;;;4.75;;
76610;SDS011;65503;48.534;9.062;2023-07-24T08:49:36;8.93;;;4.25;;
76610;SDS011;65503;48.534;9.062;2023-07-24T08:52:06;15.07;;;4.22;;
76610;SDS011;65503;48.534;9.062;2023-07-24T08:54:37;14.48;;;4.13;;
76610;SDS011;65503;48.534;9.062;2023-07-24T08:57:06;9.52;;;4.00;;
76610;SDS011;65503;48.534;9.062;2023-07-24T08:59:33;11.82;;;4.50;;
76610;SDS011;65503;48.534;9.062;2023-07-24T09:02:00;7.93;;;3.70;;
76610;SDS011;65503;48.534;9.062;2023-07-24T09:06:56;7.95;;;3.65;;
76610;SDS011;65503;48.534;9.062;2023-07-24T09:09:28;9.52;;;3.70;;
76610;SDS011;65503;48.534;9.062;2023-07-24T09:11:56;7.13;;;3.42;;
76610;SDS011;65503;48.534;9.062;2023-07-24T09:14:26;10.10;;;3.72;;
76610;SDS011;65503;48.534;9.062;2023-07-24T09:17:07;8.75;;;3.75;;
76610;SDS011;65503;48.534;9.062;2023-07-24T09:19:36;10.70;;;3.70;;
76610;SDS011;65503;48.534;9.062;2023-07-24T09:22:13;8.05;;;3.60;;
76610;SDS011;65503;48.534;9.062;2023-07-24T09:24:50;9.32;;;3.72;;
76610;SDS011;65503;48.534;9.062;2023-07-24T09:27:18;8.90;;;4.90;;
76610;SDS011;65503;48.534;9.062;2023-07-24T09:29:45;8.52;;;3.92;;
76610;SDS011;65503;48.534;9.062;2023-07-24T09:35:15;8.85;;;3.90;;
76610;SDS011;65503;48.534;9.062;2023-07-24T09:37:43;7.85;;;4.28;;
76610;SDS011;65503;48.534;9.062;2023-07-24T09:40:11;6.93;;;3.30;;
76610;SDS011;65503;48.534;9.062;2023-07-24T09:42:38;8.50;;;4.53;;
76610;SDS011;65503;48.534;9.062;2023-07-24T09:45:26;16.05;;;4.43;;
76610;SDS011;65503;48.534;9.062;2023-07-24T09:50:30;10.43;;;4.70;;
76610;SDS011;65503;48.534;9.062;2023-07-24T09:52:57;12.15;;;4.40;;
76610;SDS011;65503;48.534;9.062;2023-07-24T09:55:30;10.27;;;3.78;;
76610;SDS011;65503;48.534;9.062;2023-07-24T09:58:04;10.70;;;5.22;;
76610;SDS011;65503;48.534;9.062;2023-07-24T10:00:32;9.80;;;5.20;;
76610;SDS011;65503;48.534;9.062;2023-07-24T10:02:59;9.82;;;4.82;;
76610;SDS011;65503;48.534;9.062;2023-07-24T10:05:26;9.73;;;5.07;;
76610;SDS011;65503;48.534;9.062;2023-07-24T10:07:54;8.93;;;4.90;;
76610;SDS011;65503;48.534;9.062;2023-07-24T10:10:21;10.68;;;4.78;;
76610;SDS011;65503;48.534;9.062;2023-07-24T10:12:48;9.80;;;4.93;;
76610;SDS011;65503;48.534;9.062;2023-07-24T10:15:15;9.82;;;4.97;;
76610;SDS011;65503;48.534;9.062;2023-07-24T10:17:42;10.40;;;5.97;;
76610;SDS011;65503;48.534;9.062;2023-07-24T10:20:10;11.85;;;4.78;;
76610;SDS011;65503;48.534;9.062;2023-07-24T10:22:40;12.13;;;5.68;;
76610;SDS011;65503;48.534;9.062;2023-07-24T10:25:09;9.90;;;4.97;;
76610;SDS011;65503;48.534;9.062;2023-07-24T10:27:43;10.80;;;5.65;;
76610;SDS011;65503;48.534;9.062;2023-07-24T10:30:12;10.68;;;5.45;;
76610;SDS011;65503;48.534;9.062;2023-07-24T10:33:06;10.38;;;4.57;;
76610;SDS011;65503;48.534;9.062;2023-07-24T10:35:39;9.23;;;5.13;;
76610;SDS011;65503;48.534;9.062;2023-07-24T10:38:07;10.43;;;4.97;;
76610;SDS011;65503;48.534;9.062;2023-07-24T10:40:35;10.65;;;5.38;;
76610;SDS011;65503;48.534;9.062;2023-07-24T10:43:08;9.93;;;4.95;;
76610;SDS011;65503;48.534;9.062;2023-07-24T10:45:47;10.90;;;5.65;;
76610;SDS011;65503;48.534;9.062;2023-07-24T10:48:15;10.77;;;5.28;;
76610;SDS011;65503;48.534;9.062;2023-07-24T10:50:47;10.80;;;5.68;;
76610;SDS011;65503;48.534;9.062;2023-07-24T10:53:20;10.93;;;5.35;;
76610;SDS011;65503;48.534;9.062;2023-07-24T10:55:47;9.52;;;5.55;;
76610;SDS011;65503;48.534;9.062;2023-07-24T10:58:16;9.30;;;5.63;;
76610;SDS011;65503;48.534;9.062;2023-07-24T11:00:43;9.75;;;5.53;;
76610;SDS011;65503;48.534;9.062;2023-07-24T11:03:10;11.30;;;5.43;;
76610;SDS011;65503;48.534;9.062;2023-07-24T11:05:44;12.43;;;5.28;;
76610;SDS011;65503;48.534;9.062;2023-07-24T11:08:15;9.68;;;5.10;;
76610;SDS011;65503;48.534;9.062;2023-07-24T11:10:54;11.77;;;5.88;;
76610;SDS011;65503;48.534;9.062;2023-07-24T11:13:24;11.02;;;5.65;;
76610;SDS011;65503;48.534;9.062;2023-07-24T11:15:52;10.95;;;5.40;;
76610;SDS011;65503;48.534;9.062;2023-07-24T11:18:20;13.05;;;6.55;;
76610;SDS011;65503;48.534;9.062;2023-07-24T11:20:49;12.40;;;6.70;;
76610;SDS011;65503;48.534;9.062;2023-07-24T11:23:17;12.25;;;5.93;;
76610;SDS011;65503;48.534;9.062;2023-07-24T11:25:45;10.57;;;5.72;;
76610;SDS011;65503;48.534;9.062;2023-07-24T11:28:13;9.77;;;5.53;;
76610;SDS011;65503;48.534;9.062;2023-07-24T11:30:41;11.82;;;5.82;;
76610;SDS011;65503;48.534;9.062;2023-07-24T11:33:10;10.93;;;5.60;;
76610;SDS011;65503;48.534;9.062;2023-07-24T11:35:42;11.32;;;5.57;;
76610;SDS011;65503;48.534;9.062;2023-07-24T11:38:08;10.50;;;5.47;;
76610;SDS011;65503;48.534;9.062;2023-07-24T11:40:37;10.40;;;5.00;;
76610;SDS011;65503;48.534;9.062;2023-07-24T11:43:05;12.68;;;4.88;;
76610;SDS011;65503;48.534;9.062;2023-07-24T11:45:43;8.90;;;4.80;;
76610;SDS011;65503;48.534;9.062;2023-07-24T11:48:11;8.90;;;4.30;;
76610;SDS011;65503;48.534;9.062;2023-07-24T11:50:44;11.10;;;5.00;;
76610;SDS011;65503;48.534;9.062;2023-07-24T11:53:19;11.52;;;5.18;;
76610;SDS011;65503;48.534;9.062;2023-07-24T11:55:50;11.48;;;4.90;;
76610;SDS011;65503;48.534;9.062;2023-07-24T11:58:18;10.32;;;4.63;;
76610;SDS011;65503;48.534;9.062;2023-07-24T12:00:46;9.95;;;4.72;;
76610;SDS011;65503;48.534;9.062;2023-07-24T12:03:24;9.98;;;4.65;;
76610;SDS011;65503;48.534;9.062;2023-07-24T12:05:52;8.55;;;4.07;;
76610;SDS011;65503;48.534;9.062;2023-07-24T12:08:20;8.70;;;4.10;;
76610;SDS011;65503;48.534;9.062;2023-07-24T12:10:50;7.93;;;4.40;;
76610;SDS011;65503;48.534;9.062;2023-07-24T12:15:47;8.30;;;3.97;;
76610;SDS011;65503;48.534;9.062;2023-07-24T12:20:41;8.90;;;4.30;;
76610;SDS011;65503;48.534;9.062;2023-07-24T12:23:08;6.78;;;3.55;;
76610;SDS011;65503;48.534;9.062;2023-07-24T12:25:34;7.13;;;3.63;;
76610;SDS011;65503;48.534;9.062;2023-07-24T12:28:01;7.53;;;4.13;;
76610;SDS011;65503;48.534;9.062;2023-07-24T12:30:27;7.85;;;3.88;;
76610;SDS011;65503;48.534;9.062;2023-07-24T12:32:54;8.50;;;3.70;;
76610;SDS011;65503;48.534;9.062;2023-07-24T12:35:20;8.20;;;3.70;;
76610;SDS011;65503;48.534;9.062;2023-07-24T12:37:47;6.88;;;3.53;;
76610;SDS011;65503;48.534;9.062;2023-07-24T12:40:14;7.80;;;3.40;;
76610;SDS011;65503;48.534;9.062;2023-07-24T12:42:40;8.60;;;3.85;;
76610;SDS011;65503;48.534;9.062;2023-07-24T12:45:07;7.10;;;3.58;;
76610;SDS011;65503;48.534;9.062;2023-07-24T12:50:01;9.93;;;3.80;;
76610;SDS011;65503;48.534;9.062;2023-07-24T12:52:30;6.63;;;3.78;;
76610;SDS011;65503;48.534;9.062;2023-07-24T12:54:57;6.85;;;3.42;;
76610;SDS011;65503;48.534;9.062;2023-07-24T12:57:28;7.57;;;4.00;;
76610;SDS011;65503;48.534;9.062;2023-07-24T12:59:54;7.47;;;3.55;;
76610;SDS011;65503;48.534;9.062;2023-07-24T13:02:21;9.75;;;3.63;;
76610;SDS011;65503;48.534;9.062;2023-07-24T13:04:47;7.93;;;3.50;;
76610;SDS011;65503;48.534;9.062;2023-07-24T13:07:14;5.68;;;3.08;;
76610;SDS011;65503;48.534;9.062;2023-07-24T13:09:40;6.15;;;3.15;;
76610;SDS011;65503;48.534;9.062;2023-07-24T13:12:08;7.35;;;3.15;;
76610;SDS011;65503;48.534;9.062;2023-07-24T13:14:35;8.02;;;3.40;;
76610;SDS011;65503;48.534;9.062;2023-07-24T13:17:05;6.45;;;3.47;;
76610;SDS011;65503;48.534;9.062;2023-07-24T13:19:32;7.78;;;3.10;;
76610;SDS011;65503;48.534;9.062;2023-07-24T13:21:58;6.35;;;2.92;;
76610;SDS011;65503;48.534;9.062;2023-07-24T13:24:25;7.97;;;3.22;;
76610;SDS011;65503;48.534;9.062;2023-07-24T13:26:52;7.35;;;3.42;;
76610;SDS011;65503;48.534;9.062;2023-07-24T13:31:50;6.47;;;2.92;;
76610;SDS011;65503;48.534;9.062;2023-07-24T13:34:18;9.07;;;2.95;;
76610;SDS011;65503;48.534;9.062;2023-07-24T13:36:46;6.93;;;2.90;;
76610;SDS011;65503;48.534;9.062;2023-07-24T13:39:13;7.38;;;3.80;;
76610;SDS011;65503;48.534;9.062;2023-07-24T13:41:40;6.13;;;3.10;;
76610;SDS011;65503;48.534;9.062;2023-07-24T13:44:08;6.88;;;3.15;;
76610;SDS011;65503;48.534;9.062;2023-07-24T13:46:34;6.13;;;2.90;;
76610;SDS011;65503;48.534;9.062;2023-07-24T13:49:05;6.40;;;3.10;;
76610;SDS011;65503;48.534;9.062;2023-07-24T13:51:32;7.15;;;3.00;;
76610;SDS011;65503;48.534;9.062;2023-07-24T13:53:58;7.78;;;2.90;;
76610;SDS011;65503;48.534;9.062;2023-07-24T13:56:28;6.07;;;2.92;;
76610;SDS011;65503;48.534;9.062;2023-07-24T13:58:56;5.78;;;3.20;;
76610;SDS011;65503;48.534;9.062;2023-07-24T14:01:22;8.15;;;3.20;;
76610;SDS011;65503;48.534;9.062;2023-07-24T14:03:49;7.28;;;3.22;;
76610;SDS011;65503;48.534;9.062;2023-07-24T14:08:42;7.13;;;3.42;;
76610;SDS011;65503;48.534;9.062;2023-07-24T14:11:09;6.05;;;2.88;;
76610;SDS011;65503;48.534;9.062;2023-07-24T14:13:35;7.38;;;3.40;;
76610;SDS011;65503;48.534;9.062;2023-07-24T14:16:02;8.23;;;3.33;;
76610;SDS011;65503;48.534;9.062;2023-07-24T14:18:29;5.05;;;2.38;;
76610;SDS011;65503;48.534;9.062;2023-07-24T14:20:55;5.20;;;2.70;;
76610;SDS011;65503;48.534;9.062;2023-07-24T14:23:22;5.38;;;2.50;;
76610;SDS011;65503;48.534;9.062;2023-07-24T14:25:49;5.97;;;2.70;;
76610;SDS011;65503;48.534;9.062;2023-07-24T14:28:16;5.18;;;2.70;;
76610;SDS011;65503;48.534;9.062;2023-07-24T14:30:42;6.05;;;2.50;;
76610;SDS011;65503;48.534;9.062;2023-07-24T14:33:09;4.82;;;2.60;;
76610;SDS011;65503;48.534;9.062;2023-07-24T14:35:35;5.18;;;2.60;;
76610;SDS011;65503;48.534;9.062;2023-07-24T14:38:02;5.85;;;2.72;;
76610;SDS011;65503;48.534;9.062;2023-07-24T14:40:28;5.75;;;2.83;;
76610;SDS011;65503;48.534;9.062;2023-07-24T14:42:55;5.32;;;2.50;;
76610;SDS011;65503;48.534;9.062;2023-07-24T14:47:48;4.95;;;2.13;;
76610;SDS011;65503;48.534;9.062;2023-07-24T14:50:15;5.05;;;2.25;;
76610;SDS011;65503;48.534;9.062;2023-07-24T14:55:10;5.22;;;2.50;;
76610;SDS011;65503;48.534;9.062;2023-07-24T14:57:36;6.88;;;2.78;;
76610;SDS011;65503;48.534;9.062;2023-07-24T15:00:03;6.65;;;2.90;;
76610;SDS011;65503;48.534;9.062;2023-07-24T15:02:30;6.40;;;2.90;;
76610;SDS011;65503;48.534;9.062;2023-07-24T15:04:58;5.90;;;2.72;;
76610;SDS011;65503;48.534;9.062;2023-07-24T15:07:25;7.60;;;2.90;;
76610;SDS011;65503;48.534;9.062;2023-07-24T15:09:51;5.18;;;2.53;;
76610;SDS011;65503;48.534;9.062;2023-07-24T15:12:18;5.22;;;2.38;;
76610;SDS011;65503;48.534;9.062;2023-07-24T15:14:45;5.45;;;2.97;;
76610;SDS011;65503;48.534;9.062;2023-07-24T15:17:11;6.90;;;2.95;;
76610;SDS011;65503;48.534;9.062;2023-07-24T15:19:40;8.90;;;3.47;;
76610;SDS011;65503;48.534;9.062;2023-07-24T15:22:07;5.70;;;2.53;;
76610;SDS011;65503;48.534;9.062;2023-07-24T15:24:34;5.95;;;2.97;;
76610;SDS011;65503;48.534;9.062;2023-07-24T15:27:00;5.32;;;2.53;;
76610;SDS011;65503;48.534;9.062;2023-07-24T15:29:35;6.68;;;2.58;;